createdAt,value
2022-07-30T00:00:02.812Z,98
2022-07-30T00:03:10.253Z,93
2022-07-30T00:04:15.902Z,96
2022-07-30T00:05:35.257Z,92
2022-07-30T00:07:11.134Z,90
2022-07-30T00:08:16.023Z,89
2022-07-30T00:10:18.901Z,88
2022-07-30T00:13:06.296Z,83
2022-07-30T00:14:36.320Z,86
2022-07-30T00:17:49.216Z,86
2022-07-30T00:21:38.547Z,87
2022-07-30T00:22:43.933Z,85
2022-07-30T00:24:25.589Z,85
2022-07-30T00:26:57.031Z,92
2022-07-30T00:28:13.604Z,91
2022-07-30T00:29:23.447Z,96
2022-07-30T00:31:11.584Z,105
2022-07-30T00:32:16.322Z,103
2022-07-30T00:33:42.220Z,105
2022-07-30T00:34:58.091Z,114
2022-07-30T00:37:18.121Z,108
2022-07-30T00:38:47.532Z,113
2022-07-30T00:40:49.309Z,106
2022-07-30T00:41:58.512Z,104
2022-07-30T00:43:18.578Z,105
2022-07-30T00:44:28.966Z,113
2022-07-30T00:46:32.214Z,108
2022-07-30T00:48:43.971Z,107
2022-07-30T00:49:48.494Z,112
2022-07-30T00:50:57.784Z,107
2022-07-30T00:52:10.039Z,112
2022-07-30T00:53:38.160Z,110
2022-07-30T00:54:58.192Z,111
2022-07-30T00:56:35.796Z,112
2022-07-30T00:57:55.311Z,108
2022-07-30T00:59:03.771Z,105
2022-07-30T01:00:27.813Z,111
2022-07-30T01:01:56.154Z,113
2022-07-30T01:03:09.822Z,113
2022-07-30T01:04:14.947Z,117
2022-07-30T01:05:20.201Z,115
2022-07-30T01:07:16.991Z,114
2022-07-30T01:08:45.857Z,112
2022-07-30T01:14:00.517Z,120
2022-07-30T01:18:49.165Z,124
2022-07-30T01:23:26.799Z,111
2022-07-30T01:25:18.363Z,110
2022-07-30T01:28:20.875Z,106
2022-07-30T01:31:20.714Z,113
2022-07-30T01:32:53.171Z,106
2022-07-30T01:34:18.741Z,102
2022-07-30T01:36:40.850Z,106
2022-07-30T01:40:17.486Z,107
2022-07-30T01:44:43.827Z,111
2022-07-30T01:45:53.787Z,109
2022-07-30T01:47:40.901Z,114
2022-07-30T01:48:45.610Z,112
2022-07-30T01:50:23.515Z,112
2022-07-30T01:51:33.507Z,119
2022-07-30T01:52:34.847Z,116
2022-07-30T01:53:45.827Z,115
2022-07-30T01:56:48.723Z,110
2022-07-30T01:58:51.557Z,108
2022-07-30T01:59:58.398Z,104
2022-07-30T02:01:31.516Z,103
2022-07-30T02:03:06.506Z,102
2022-07-30T02:04:26.075Z,99
2022-07-30T02:05:40.043Z,102
2022-07-30T02:06:52.230Z,101
2022-07-30T02:08:03.401Z,98
2022-07-30T02:09:58.364Z,95
2022-07-30T02:11:08.879Z,96
2022-07-30T02:12:30.619Z,89
2022-07-30T02:14:07.239Z,87
2022-07-30T02:15:33.799Z,85
2022-07-30T02:17:08.903Z,79
2022-07-30T02:18:14.354Z,84
2022-07-30T02:19:32.778Z,78
2022-07-30T02:20:35.759Z,77
2022-07-30T02:21:39.845Z,72
2022-07-30T02:23:05.148Z,78
2022-07-30T02:24:10.851Z,74
2022-07-30T02:25:42.299Z,77
2022-07-30T02:27:08.866Z,76
2022-07-30T02:28:23.083Z,75
2022-07-30T02:29:28.518Z,75
2022-07-30T02:30:33.623Z,77
2022-07-30T02:31:49.747Z,79
2022-07-30T02:33:53.150Z,78
2022-07-30T02:34:58.374Z,73
2022-07-30T02:38:10.198Z,72
2022-07-30T02:39:47.107Z,67
2022-07-30T02:40:56.015Z,74
2022-07-30T02:42:31.707Z,70
2022-07-30T02:43:36.473Z,80
2022-07-30T02:45:55.843Z,86
2022-07-30T02:48:32.996Z,101
2022-07-30T02:49:59.223Z,99
2022-07-30T02:51:05.922Z,105
2022-07-30T02:52:59.384Z,105
2022-07-30T02:54:25.400Z,105
2022-07-30T02:55:30.890Z,105
2022-07-30T02:57:00.224Z,121
2022-07-30T02:58:26.206Z,123
2022-07-30T02:59:32.255Z,114
2022-07-30T03:01:23.100Z,116
2022-07-30T03:02:51.919Z,116
2022-07-30T03:04:03.670Z,116
2022-07-30T03:05:43.191Z,116
2022-07-30T03:07:07.676Z,112
2022-07-30T03:08:13.067Z,106
2022-07-30T03:09:17.772Z,106
2022-07-30T03:10:30.666Z,106
2022-07-30T03:11:42.271Z,107
2022-07-30T03:12:57.582Z,108
2022-07-30T03:14:02.936Z,111
2022-07-30T03:16:50.463Z,107
2022-07-30T03:21:06.543Z,114
2022-07-30T03:22:16.895Z,114
2022-07-30T03:23:44.615Z,112
2022-07-30T03:24:51.734Z,118
2022-07-30T03:26:13.738Z,109
2022-07-30T03:27:19.847Z,107
2022-07-30T03:29:22.407Z,108
2022-07-30T03:30:27.705Z,107
2022-07-30T03:32:40.930Z,114
2022-07-30T03:33:48.608Z,109
2022-07-30T03:35:39.203Z,106
2022-07-30T03:36:53.402Z,98
2022-07-30T03:38:06.586Z,95
2022-07-30T03:39:18.926Z,91
2022-07-30T03:41:22.499Z,98
2022-07-30T03:42:39.561Z,97
2022-07-30T03:44:08.379Z,89
2022-07-30T03:45:36.728Z,92
2022-07-30T03:47:21.983Z,86
2022-07-30T03:48:53.282Z,89
2022-07-30T03:50:27.998Z,94
2022-07-30T03:51:34.316Z,92
2022-07-30T03:54:27.279Z,92
2022-07-30T03:55:38.150Z,92
2022-07-30T03:57:32.494Z,87
2022-07-30T03:58:37.417Z,82
2022-07-30T03:59:57.999Z,82
2022-07-30T04:01:38.665Z,82
2022-07-30T04:02:59.814Z,83
2022-07-30T04:04:05.423Z,77
2022-07-30T04:05:18.435Z,79
2022-07-30T04:06:39.715Z,84
2022-07-30T04:08:01.691Z,88
2022-07-30T04:09:09.801Z,90
2022-07-30T04:10:34.474Z,92
2022-07-30T04:11:44.564Z,91
2022-07-30T04:13:09.683Z,93
2022-07-30T04:14:13.403Z,95
2022-07-30T04:16:05.219Z,99
2022-07-30T04:16:38.653Z,101
2022-07-30T04:18:16.595Z,104
2022-07-30T04:19:30.165Z,104
2022-07-30T04:20:39.553Z,110
2022-07-30T04:22:13.456Z,116
2022-07-30T04:24:02.481Z,127
2022-07-30T04:25:57.663Z,131
2022-07-30T04:27:31.338Z,131
2022-07-30T04:28:37.381Z,131
2022-07-30T04:29:45.530Z,131
2022-07-30T04:30:55.368Z,131
2022-07-30T04:34:11.837Z,124
2022-07-30T04:39:22.878Z,129
2022-07-30T04:40:29.041Z,129
2022-07-30T04:42:24.329Z,132
2022-07-30T04:43:44.709Z,132
2022-07-30T04:44:51.161Z,132
2022-07-30T04:46:24.567Z,116
2022-07-30T04:49:06.463Z,116
2022-07-30T04:50:12.093Z,116
2022-07-30T04:53:56.033Z,99
2022-07-30T04:55:24.607Z,98
2022-07-30T04:58:21.753Z,98
2022-07-30T04:59:27.481Z,99
2022-07-30T05:00:32.697Z,99
2022-07-30T05:02:27.637Z,99
2022-07-30T05:05:19.928Z,100
2022-07-30T05:06:29.649Z,98
2022-07-30T05:07:34.477Z,101
2022-07-30T05:09:50.673Z,106
2022-07-30T05:16:36.065Z,110
2022-07-30T05:18:39.829Z,116
2022-07-30T05:22:06.490Z,125
2022-07-30T05:28:57.315Z,126
2022-07-30T05:30:02.157Z,126
2022-07-30T05:31:35.203Z,126
2022-07-30T05:32:46.458Z,117
2022-07-30T05:34:02.663Z,110
2022-07-30T05:38:12.053Z,110
2022-07-30T05:43:22.286Z,110
2022-07-30T05:52:51.444Z,110
2022-07-30T05:54:24.770Z,110
2022-07-30T05:55:28.969Z,110
2022-07-30T06:02:08.157Z,114
2022-07-30T06:04:05.307Z,104
2022-07-30T06:05:58.070Z,113
2022-07-30T06:08:18.941Z,112
2022-07-30T06:12:17.597Z,112
2022-07-30T06:14:22.269Z,112
2022-07-30T06:18:09.757Z,112
2022-07-30T06:22:01.455Z,112
2022-07-30T06:23:31.298Z,112
2022-07-30T06:27:39.822Z,112
2022-07-30T06:41:22.466Z,112
2022-07-30T06:43:42.569Z,112
2022-07-30T06:46:04.632Z,112
2022-07-30T06:49:32.781Z,112
2022-07-30T06:53:18.742Z,112
2022-07-30T06:54:23.873Z,112
2022-07-30T06:55:28.977Z,112
2022-07-30T06:56:39.130Z,112
2022-07-30T06:59:57.729Z,112
2022-07-30T07:01:17.980Z,112
2022-07-30T07:03:39.469Z,112
2022-07-30T07:09:23.170Z,112
2022-07-30T07:11:16.433Z,112
2022-07-30T07:21:45.946Z,112
2022-07-30T10:47:50.462Z,48
2022-07-30T18:17:31.043Z,42
2022-07-30T18:18:38.511Z,42
2022-07-30T18:19:45.530Z,42
2022-07-30T18:24:15.414Z,42
2022-07-30T18:25:54.539Z,42
2022-07-30T18:31:46.743Z,42
2022-07-30T18:33:31.998Z,42
2022-07-30T18:38:02.875Z,42
2022-07-30T19:11:42.266Z,42
2022-07-30T19:16:52.195Z,42
2022-07-30T19:59:45.119Z,42
2022-07-30T22:38:41.064Z,42
2022-07-30T22:39:54.221Z,42
2022-07-30T22:40:58.705Z,42
2022-07-30T22:42:12.532Z,42
2022-07-30T22:43:42.092Z,42
2022-07-30T22:45:46.965Z,48
2022-07-30T22:47:51.636Z,48
2022-07-30T22:48:30.156Z,48
2022-07-30T22:50:51.835Z,48
2022-07-30T22:52:08.415Z,48
2022-07-30T22:54:10.263Z,48
2022-07-30T22:55:34.492Z,48
2022-07-30T22:57:22.735Z,48
2022-07-30T22:58:31.677Z,48
2022-07-30T23:06:52.985Z,48
2022-07-30T23:12:26.272Z,48
2022-07-30T23:13:32.616Z,39
2022-07-30T23:14:37.051Z,42
2022-07-30T23:19:47.671Z,39
2022-07-30T23:21:48.617Z,46
2022-07-30T23:24:07.983Z,46
2022-07-30T23:27:59.020Z,46
2022-07-30T23:29:03.431Z,46
2022-07-30T23:30:32.106Z,46
2022-07-30T23:32:06.921Z,46
2022-07-30T23:34:39.539Z,46
2022-07-30T23:35:44.435Z,46
2022-07-30T23:39:25.738Z,46
2022-07-30T23:41:12.026Z,46
2022-07-30T23:42:52.342Z,46
2022-07-30T23:44:56.371Z,46
2022-07-30T23:46:01.216Z,46
2022-07-30T23:48:37.060Z,46
2022-07-30T23:52:11.014Z,46
2022-07-30T23:53:36.357Z,46
2022-07-30T23:54:40.721Z,46
2022-07-30T23:56:03.616Z,46
2022-07-30T23:57:08.186Z,46
2022-07-30T23:58:49.660Z,46
2022-07-30T23:59:54.298Z,46
